Time;durP1;ratioP1;P1;durP2;ratioP2;P2;SDS_P1;SDS_P2;PMS_P1;PMS_P2;Temp;Humidity;BMP_temperature;BMP_pressure;BME280_temperature;BME280_humidity;BME280_pressure;Samples;Min_cycle;Max_cycle;Signal;HPM_P1;HPM_P2
2024/03/22 00:01:19;;;;;;;6.32;3.58;;;11.40;99.90;;;;;;4978540;28;20054;-77
2024/03/22 00:03:45;;;;;;;6.78;3.78;;;11.30;99.90;;;;;;4978360;28;20431;-78
2024/03/22 00:06:10;;;;;;;7.72;3.63;;;11.30;99.90;;;;;;4978752;28;20030;-78
2024/03/22 00:08:36;;;;;;;6.32;3.53;;;11.20;99.90;;;;;;4978472;28;20121;-78
2024/03/22 00:11:02;;;;;;;8.75;3.55;;;11.20;99.90;;;;;;4996148;28;20041;-78
2024/03/22 00:13:27;;;;;;;6.43;3.97;;;11.20;99.90;;;;;;4978243;28;20542;-79
2024/03/22 00:15:53;;;;;;;5.45;3.17;;;11.20;99.90;;;;;;4978196;28;20027;-78
2024/03/22 00:18:18;;;;;;;7.72;3.65;;;11.20;99.90;;;;;;4978086;28;20120;-78
2024/03/22 00:20:44;;;;;;;5.93;4.00;;;11.10;99.90;;;;;;4977300;28;20030;-78
2024/03/22 00:23:09;;;;;;;5.45;3.85;;;11.10;99.90;;;;;;4995327;28;20069;-79
2024/03/22 00:25:35;;;;;;;6.30;3.80;;;11.10;99.90;;;;;;4977384;28;20414;-79
2024/03/22 00:28:01;;;;;;;6.10;3.40;;;11.00;99.90;;;;;;4995385;28;20027;-79
2024/03/22 00:30:26;;;;;;;7.22;4.43;;;11.00;99.90;;;;;;4977476;28;20037;-87
2024/03/22 00:32:52;;;;;;;6.25;3.95;;;11.00;99.90;;;;;;4995269;28;20034;-78
2024/03/22 00:35:17;;;;;;;5.15;3.40;;;11.00;99.90;;;;;;4977112;28;20050;-78
2024/03/22 00:37:43;;;;;;;5.25;3.45;;;10.90;99.90;;;;;;4976863;28;20037;-78
2024/03/22 00:40:09;;;;;;;6.20;3.53;;;10.90;99.90;;;;;;4995044;28;20031;-79
2024/03/22 00:42:35;;;;;;;5.60;3.90;;;10.90;99.90;;;;;;4994595;28;20093;-79
2024/03/22 00:45:00;;;;;;;7.72;4.07;;;10.90;99.90;;;;;;4977144;28;20122;-79
2024/03/22 00:47:26;;;;;;;7.18;4.00;;;10.80;99.90;;;;;;4977608;28;20037;-84
2024/03/22 00:49:51;;;;;;;5.10;3.38;;;10.90;99.90;;;;;;4977667;28;20125;-79
2024/03/22 00:52:17;;;;;;;6.95;3.40;;;10.80;99.90;;;;;;4994941;28;20026;-79
2024/03/22 00:54:43;;;;;;;9.35;4.22;;;10.90;99.90;;;;;;4977031;28;20025;-79
2024/03/22 00:57:08;;;;;;;6.97;3.67;;;10.80;99.90;;;;;;4994635;28;20109;-79
2024/03/22 00:59:34;;;;;;;6.68;3.75;;;10.70;99.90;;;;;;4976678;28;20061;-78
2024/03/22 01:02:00;;;;;;;7.50;3.83;;;10.70;99.90;;;;;;4977527;28;20033;-79
2024/03/22 01:04:25;;;;;;;6.90;3.88;;;10.70;99.90;;;;;;4976823;28;20504;-85
2024/03/22 01:06:51;;;;;;;7.00;4.00;;;10.70;99.90;;;;;;4994463;28;20093;-79
2024/03/22 01:09:16;;;;;;;6.82;3.55;;;10.70;99.90;;;;;;4977346;28;20022;-79
2024/03/22 01:11:42;;;;;;;7.72;3.70;;;10.60;99.90;;;;;;4977053;28;20041;-79
2024/03/22 01:14:07;;;;;;;8.02;4.60;;;10.50;99.90;;;;;;4994812;28;20026;-79
2024/03/22 01:16:33;;;;;;;12.00;3.78;;;10.40;99.90;;;;;;4976908;28;20033;-79
2024/03/22 01:18:58;;;;;;;8.02;3.67;;;10.40;99.90;;;;;;4977487;28;20026;-79
2024/03/22 01:21:25;;;;;;;7.10;3.78;;;10.40;99.90;;;;;;4977338;28;20117;-79
2024/03/22 01:23:53;;;;;;;7.43;3.90;;;10.40;99.90;;;;;;4994259;28;20026;-79
2024/03/22 01:26:19;;;;;;;5.80;3.50;;;10.40;99.90;;;;;;4994655;28;20026;-78
2024/03/22 01:28:45;;;;;;;6.93;3.17;;;10.30;99.90;;;;;;4976957;28;20026;-79
2024/03/22 01:31:11;;;;;;;6.53;3.60;;;10.30;99.90;;;;;;4977349;28;20369;-78
2024/03/22 01:33:37;;;;;;;5.72;3.80;;;10.30;99.90;;;;;;4976507;28;20046;-78
2024/03/22 01:36:05;;;;;;;8.05;3.55;;;10.30;99.90;;;;;;4976820;28;20436;-79
2024/03/22 01:38:31;;;;;;;5.90;3.80;;;10.30;99.90;;;;;;4993921;28;20475;-87
2024/03/22 01:40:56;;;;;;;6.97;3.80;;;10.10;99.90;;;;;;4976578;28;20034;-79
2024/03/22 01:43:22;;;;;;;8.27;3.88;;;10.00;99.90;;;;;;4976773;28;20030;-79
2024/03/22 01:45:47;;;;;;;7.68;3.47;;;10.10;99.90;;;;;;4976362;28;20166;-79
2024/03/22 01:48:14;;;;;;;5.45;3.30;;;10.10;99.90;;;;;;4994256;28;20033;-79
2024/03/22 01:50:40;;;;;;;5.50;3.67;;;10.00;99.90;;;;;;4976600;28;20026;-79
2024/03/22 01:53:05;;;;;;;6.93;4.03;;;10.00;99.90;;;;;;4977012;28;20034;-79
2024/03/22 01:55:31;;;;;;;8.35;4.57;;;10.00;99.90;;;;;;4996492;28;20026;-82
2024/03/22 01:57:57;;;;;;;5.05;3.72;;;10.00;99.90;;;;;;4998239;28;20510;-79
2024/03/22 02:00:22;;;;;;;7.75;4.55;;;10.10;99.90;;;;;;4981124;28;20121;-79
2024/03/22 02:02:48;;;;;;;6.55;3.60;;;10.10;99.90;;;;;;4980326;28;20034;-79
2024/03/22 02:05:15;;;;;;;8.18;4.05;;;10.10;99.90;;;;;;4998241;28;20057;-78
2024/03/22 02:07:42;;;;;;;6.88;4.45;;;10.10;99.90;;;;;;4997360;28;20376;-77
2024/03/22 02:10:10;;;;;;;7.00;3.75;;;10.10;99.90;;;;;;4998035;28;20030;-77
2024/03/22 02:12:37;;;;;;;7.80;3.95;;;10.10;99.90;;;;;;4980369;28;20031;-78
2024/03/22 02:15:02;;;;;;;7.47;3.70;;;10.20;99.90;;;;;;4980714;28;20026;-78
2024/03/22 02:17:28;;;;;;;6.22;3.55;;;10.20;99.90;;;;;;4997869;28;20037;-78
2024/03/22 02:19:54;;;;;;;6.13;3.65;;;10.30;99.90;;;;;;4980313;28;20129;-77
2024/03/22 02:22:19;;;;;;;4.45;3.42;;;10.40;99.90;;;;;;4980624;28;20027;-78
2024/03/22 02:24:45;;;;;;;6.55;3.70;;;10.40;99.90;;;;;;4980041;28;20513;-79
2024/03/22 02:27:10;;;;;;;8.95;3.47;;;10.40;99.90;;;;;;4980290;28;20022;-78
2024/03/22 02:29:36;;;;;;;6.55;3.65;;;10.30;99.90;;;;;;4980155;28;20452;-78
2024/03/22 02:32:03;;;;;;;7.05;3.30;;;10.30;99.90;;;;;;4997318;28;20027;-78
2024/03/22 02:34:29;;;;;;;7.95;3.42;;;10.30;99.90;;;;;;4979555;28;20550;-77
2024/03/22 02:36:54;;;;;;;6.45;3.63;;;10.30;99.90;;;;;;4979326;28;20133;-79
2024/03/22 02:39:20;;;;;;;6.10;3.55;;;10.30;99.90;;;;;;4979604;28;20077;-79
2024/03/22 02:41:45;;;;;;;6.10;4.03;;;10.20;99.90;;;;;;4996937;28;20483;-78
2024/03/22 02:44:11;;;;;;;5.25;3.67;;;10.20;99.90;;;;;;4997381;28;20053;-78
2024/03/22 02:46:36;;;;;;;9.02;4.10;;;10.20;99.90;;;;;;4997111;28;20037;-79
2024/03/22 02:49:02;;;;;;;7.45;4.40;;;10.30;99.90;;;;;;4997194;28;20446;-78
2024/03/22 02:51:27;;;;;;;7.90;4.22;;;10.30;99.90;;;;;;4979861;28;20022;-78
2024/03/22 02:53:53;;;;;;;8.93;4.40;;;10.30;99.90;;;;;;4996697;28;20034;-78
2024/03/22 02:56:19;;;;;;;9.50;4.68;;;10.20;99.90;;;;;;4997141;28;20460;-78
2024/03/22 02:58:44;;;;;;;7.75;3.90;;;10.30;99.90;;;;;;4979384;28;20049;-80
2024/03/22 03:01:10;;;;;;;9.10;4.25;;;10.20;99.90;;;;;;4979994;28;20038;-79
2024/03/22 03:03:35;;;;;;;7.90;4.35;;;10.30;99.90;;;;;;4979734;28;20033;-83
2024/03/22 03:06:01;;;;;;;9.73;4.90;;;10.30;99.90;;;;;;4979195;28;20038;-79
2024/03/22 03:08:26;;;;;;;7.82;4.80;;;10.20;99.90;;;;;;4996735;28;20029;-79
2024/03/22 03:10:53;;;;;;;7.22;4.32;;;10.20;99.90;;;;;;4979273;28;20069;-79
2024/03/22 03:13:18;;;;;;;8.27;4.70;;;10.20;99.90;;;;;;4979505;28;20022;-80
2024/03/22 03:15:44;;;;;;;9.15;4.53;;;10.00;99.90;;;;;;4979328;28;20027;-79
2024/03/22 03:18:09;;;;;;;9.30;4.55;;;10.00;99.90;;;;;;4979628;28;20023;-80
2024/03/22 03:20:35;;;;;;;7.07;4.65;;;10.00;99.90;;;;;;4979481;28;20368;-84
2024/03/22 03:23:01;;;;;;;8.18;3.97;;;10.00;99.90;;;;;;4979312;28;20089;-79
2024/03/22 03:25:27;;;;;;;11.32;4.03;;;9.90;99.90;;;;;;4979433;28;20026;-79
2024/03/22 03:27:52;;;;;;;8.20;4.25;;;10.00;99.90;;;;;;4979249;28;20084;-79
2024/03/22 03:30:18;;;;;;;7.78;4.35;;;10.10;99.90;;;;;;4978962;28;20030;-79
2024/03/22 03:32:44;;;;;;;6.55;4.18;;;10.10;99.90;;;;;;4978426;28;20117;-80
2024/03/22 03:35:10;;;;;;;12.52;4.10;;;10.20;99.90;;;;;;4996241;28;20062;-79
2024/03/22 03:37:35;;;;;;;8.25;4.38;;;10.20;99.90;;;;;;4996411;28;20031;-82
2024/03/22 03:40:01;;;;;;;5.75;3.80;;;10.20;99.90;;;;;;4978731;28;20595;-79
2024/03/22 03:42:27;;;;;;;9.70;3.97;;;10.30;99.90;;;;;;4978952;28;20534;-78
2024/03/22 03:44:52;;;;;;;6.13;4.15;;;10.30;99.90;;;;;;4978457;28;20066;-79
2024/03/22 03:47:18;;;;;;;6.10;3.50;;;10.30;99.90;;;;;;4979039;28;20037;-79
2024/03/22 03:49:48;;;;;;;7.97;4.25;;;10.30;99.90;;;;;;4978135;28;20455;-79
2024/03/22 03:52:14;;;;;;;7.85;4.10;;;10.40;99.90;;;;;;4995878;28;20027;-78
2024/03/22 03:54:39;;;;;;;6.93;3.75;;;10.40;99.90;;;;;;4977919;28;20101;-81
2024/03/22 03:57:05;;;;;;;6.30;3.63;;;10.50;99.90;;;;;;4978221;28;20495;-78
2024/03/22 03:59:31;;;;;;;8.43;4.05;;;10.50;99.90;;;;;;4995548;28;20109;-78
2024/03/22 04:01:56;;;;;;;5.70;3.65;;;10.50;99.90;;;;;;4994819;28;20088;-78
2024/03/22 04:04:22;;;;;;;6.40;3.80;;;10.50;99.90;;;;;;4995546;28;20113;-77
2024/03/22 04:06:47;;;;;;;7.07;4.25;;;10.50;99.90;;;;;;4994808;28;20487;-78
2024/03/22 04:09:13;;;;;;;6.43;3.10;;;10.40;99.90;;;;;;4995416;28;20463;-78
2024/03/22 04:11:39;;;;;;;5.30;3.53;;;10.50;99.90;;;;;;4995280;28;20113;-87
2024/03/22 04:14:05;;;;;;;7.40;4.15;;;10.50;99.90;;;;;;4977972;28;20403;-78
2024/03/22 04:16:31;;;;;;;7.15;3.60;;;10.50;99.90;;;;;;4977422;28;20026;-78
2024/03/22 04:18:57;;;;;;;6.80;3.72;;;10.50;99.90;;;;;;4977220;28;20180;-78
2024/03/22 04:21:23;;;;;;;6.28;4.25;;;10.40;99.90;;;;;;4978638;28;20125;-78
2024/03/22 04:23:48;;;;;;;5.72;3.72;;;10.40;99.90;;;;;;4977638;28;20420;-79
2024/03/22 04:26:15;;;;;;;6.10;3.92;;;10.40;99.90;;;;;;4978401;28;20455;-78
2024/03/22 04:28:40;;;;;;;6.47;3.70;;;10.40;99.90;;;;;;4978060;28;20034;-83
2024/03/22 04:31:11;;;;;;;5.78;3.78;;;10.40;99.90;;;;;;4978204;28;20097;-78
2024/03/22 04:33:37;;;;;;;5.72;3.95;;;10.30;99.90;;;;;;4978001;28;20030;-79
2024/03/22 04:36:03;;;;;;;5.80;3.53;;;10.20;99.90;;;;;;4974368;28;20066;-79
2024/03/22 04:38:29;;;;;;;6.05;3.83;;;10.30;99.90;;;;;;4974906;28;20038;-79
2024/03/22 04:40:56;;;;;;;7.60;3.78;;;10.20;99.90;;;;;;4974155;28;20125;-79
2024/03/22 04:43:24;;;;;;;5.22;4.07;;;10.20;99.90;;;;;;4975683;28;20023;-79
2024/03/22 04:45:50;;;;;;;8.85;3.60;;;10.20;99.90;;;;;;4974178;28;20117;-79
2024/03/22 04:48:21;;;;;;;7.32;3.90;;;10.20;99.90;;;;;;4974789;28;20027;-79
2024/03/22 04:50:49;;;;;;;7.87;3.87;;;10.20;99.90;;;;;;4975115;28;20464;-79
2024/03/22 04:53:16;;;;;;;4.78;3.42;;;10.20;99.90;;;;;;4974779;28;20682;-79
2024/03/22 04:55:46;;;;;;;8.38;3.90;;;10.30;99.90;;;;;;4974723;28;20030;-84
2024/03/22 04:58:16;;;;;;;6.75;3.20;;;10.20;99.90;;;;;;4974527;28;20449;-79
2024/03/22 05:00:42;;;;;;;6.78;3.72;;;10.30;99.90;;;;;;4974396;28;20034;-83
2024/03/22 05:03:08;;;;;;;7.47;3.80;;;10.30;99.90;;;;;;4974455;28;20030;-78
2024/03/22 05:05:34;;;;;;;6.70;3.92;;;10.30;99.90;;;;;;4975808;28;20376;-78
2024/03/22 05:08:00;;;;;;;8.82;3.80;;;10.30;99.90;;;;;;4974902;28;20050;-78
2024/03/22 05:10:26;;;;;;;5.63;3.70;;;10.30;99.90;;;;;;4974522;28;20031;-78
2024/03/22 05:12:51;;;;;;;5.20;3.20;;;10.30;99.90;;;;;;4975023;28;20023;-79
2024/03/22 05:15:17;;;;;;;5.70;3.53;;;10.30;99.90;;;;;;4974289;28;20030;-78
2024/03/22 05:17:43;;;;;;;6.78;4.10;;;10.30;99.90;;;;;;4975375;28;20492;-83
2024/03/22 05:20:10;;;;;;;5.63;3.55;;;10.30;99.90;;;;;;4975199;28;20114;-79
2024/03/22 05:22:39;;;;;;;6.45;3.75;;;10.30;99.90;;;;;;4975268;28;20023;-78
2024/03/22 05:25:05;;;;;;;5.35;3.65;;;10.30;99.90;;;;;;4973754;28;20549;-79
2024/03/22 05:27:32;;;;;;;8.23;4.18;;;10.30;99.90;;;;;;4975594;28;20061;-79
2024/03/22 05:29:58;;;;;;;6.13;3.40;;;10.30;99.90;;;;;;4974357;28;20031;-79
2024/03/22 05:32:24;;;;;;;6.47;3.80;;;10.40;99.90;;;;;;4975588;28;20033;-79
2024/03/22 05:34:50;;;;;;;9.95;4.10;;;10.40;99.90;;;;;;4976828;28;20053;-80
2024/03/22 05:37:16;;;;;;;7.28;3.80;;;10.40;99.90;;;;;;4993881;28;20031;-79
2024/03/22 05:39:42;;;;;;;8.48;4.30;;;10.40;99.90;;;;;;4993513;28;20053;-84
2024/03/22 05:42:07;;;;;;;6.93;4.25;;;10.40;99.90;;;;;;4993287;28;20387;-80
2024/03/22 05:44:33;;;;;;;8.93;3.85;;;10.40;99.90;;;;;;4993306;28;20383;-79
2024/03/22 05:46:59;;;;;;;9.52;4.30;;;10.50;99.90;;;;;;4993497;28;20023;-79
2024/03/22 05:49:24;;;;;;;7.07;3.88;;;10.50;99.90;;;;;;4992980;28;20033;-78
2024/03/22 05:51:50;;;;;;;8.18;4.22;;;10.60;99.90;;;;;;4992572;28;20026;-79
2024/03/22 05:54:15;;;;;;;6.60;4.13;;;10.60;99.90;;;;;;4993040;28;20031;-78
2024/03/22 05:56:41;;;;;;;7.35;3.70;;;10.60;99.90;;;;;;4992929;28;20031;-78
2024/03/22 05:59:06;;;;;;;8.82;3.83;;;10.70;99.90;;;;;;4992879;28;20026;-78
2024/03/22 06:01:32;;;;;;;6.75;3.67;;;10.70;99.90;;;;;;4993008;28;20034;-79
2024/03/22 06:03:58;;;;;;;9.70;4.20;;;10.80;99.90;;;;;;4992058;28;20027;-79
2024/03/22 06:06:26;;;;;;;8.15;4.22;;;10.80;99.90;;;;;;4994163;28;20135;-79
2024/03/22 06:08:54;;;;;;;6.80;4.10;;;10.80;99.90;;;;;;4992820;28;20034;-80
2024/03/22 06:11:20;;;;;;;8.90;3.90;;;10.80;99.90;;;;;;4994327;28;20030;-79
2024/03/22 06:13:45;;;;;;;8.68;4.15;;;10.80;99.90;;;;;;4993934;28;20026;-85
2024/03/22 06:16:11;;;;;;;7.32;4.22;;;10.90;99.90;;;;;;4994260;28;20042;-79
2024/03/22 06:18:37;;;;;;;12.43;4.38;;;10.90;99.90;;;;;;4993484;28;20026;-79
2024/03/22 06:21:03;;;;;;;8.88;4.22;;;10.90;99.90;;;;;;4993644;28;20034;-78
2024/03/22 06:23:28;;;;;;;9.93;4.15;;;10.90;99.90;;;;;;4992838;28;20527;-78
2024/03/22 06:25:55;;;;;;;6.68;4.20;;;10.90;99.90;;;;;;4992401;28;20455;-79
2024/03/22 06:28:21;;;;;;;6.65;4.00;;;10.90;99.90;;;;;;4993198;28;20388;-78
2024/03/22 06:30:47;;;;;;;7.68;4.30;;;10.90;99.90;;;;;;4992322;28;20468;-85
2024/03/22 06:33:13;;;;;;;7.80;3.90;;;10.90;99.90;;;;;;4993785;28;20109;-81
2024/03/22 06:35:39;;;;;;;6.70;4.30;;;10.90;99.90;;;;;;4992786;28;20054;-79
2024/03/22 06:38:04;;;;;;;7.63;4.10;;;10.90;99.90;;;;;;4992322;28;20487;-79
2024/03/22 06:40:30;;;;;;;8.45;4.07;;;10.90;99.90;;;;;;4993830;28;20030;-79
2024/03/22 06:42:56;;;;;;;5.90;3.85;;;11.00;99.90;;;;;;4997125;28;20018;-78
2024/03/22 06:45:22;;;;;;;7.63;4.30;;;10.90;99.90;;;;;;4980446;28;20031;-77
2024/03/22 06:47:47;;;;;;;6.78;3.78;;;11.00;99.90;;;;;;4978934;28;20469;-77
2024/03/22 06:50:13;;;;;;;7.90;4.05;;;11.00;99.90;;;;;;4979457;28;20026;-77
2024/03/22 06:52:39;;;;;;;8.15;3.95;;;11.00;99.90;;;;;;4979717;28;20037;-77
2024/03/22 06:55:06;;;;;;;9.18;4.68;;;11.00;99.90;;;;;;4979103;28;20554;-77
2024/03/22 06:57:33;;;;;;;9.07;3.83;;;11.00;99.90;;;;;;4996544;28;20460;-77
2024/03/22 06:59:59;;;;;;;8.90;4.13;;;11.10;99.90;;;;;;4979251;28;20042;-79
2024/03/22 07:02:26;;;;;;;7.28;3.85;;;11.10;99.90;;;;;;4979810;28;20030;-79
2024/03/22 07:04:52;;;;;;;8.30;4.30;;;11.10;99.90;;;;;;4978894;28;20031;-78
2024/03/22 07:07:18;;;;;;;7.95;4.18;;;11.20;99.90;;;;;;4979301;28;20030;-78
2024/03/22 07:09:44;;;;;;;6.25;4.25;;;11.20;99.90;;;;;;4996752;28;20077;-76
2024/03/22 07:12:09;;;;;;;8.38;4.22;;;11.30;99.90;;;;;;4979203;28;20034;-78
2024/03/22 07:14:35;;;;;;;13.07;4.53;;;11.40;99.90;;;;;;4979340;28;20033;-79
2024/03/22 07:17:00;;;;;;;9.75;4.13;;;11.40;99.90;;;;;;4979133;28;20026;-78
2024/03/22 07:19:27;;;;;;;9.98;4.32;;;11.40;99.90;;;;;;4979474;28;20022;-78
2024/03/22 07:21:52;;;;;;;8.25;5.03;;;11.50;99.90;;;;;;4978925;28;20107;-78
2024/03/22 07:24:18;;;;;;;8.43;4.07;;;11.50;99.90;;;;;;4979516;28;20469;-78
2024/03/22 07:26:44;;;;;;;8.93;4.45;;;11.60;99.90;;;;;;4979302;28;20029;-78
2024/03/22 07:29:09;;;;;;;13.77;5.07;;;11.60;99.90;;;;;;4979226;28;20030;-79
2024/03/22 07:31:35;;;;;;;10.82;4.50;;;11.60;99.90;;;;;;4979225;28;20035;-79
2024/03/22 07:34:00;;;;;;;9.02;4.93;;;11.60;99.90;;;;;;4978944;28;20037;-79
2024/03/22 07:36:26;;;;;;;8.55;3.78;;;11.60;99.90;;;;;;4979169;28;20121;-79
2024/03/22 07:38:52;;;;;;;7.30;4.45;;;11.70;99.90;;;;;;4996181;28;20471;-80
2024/03/22 07:41:18;;;;;;;8.80;4.47;;;11.80;99.90;;;;;;4996333;28;20030;-81
2024/03/22 07:43:43;;;;;;;10.75;4.78;;;11.90;99.90;;;;;;4996709;28;20428;-79
2024/03/22 07:46:09;;;;;;;8.43;3.78;;;11.90;99.90;;;;;;4978857;28;20391;-79
2024/03/22 07:48:35;;;;;;;10.10;4.47;;;12.00;99.90;;;;;;4979008;28;20037;-80
2024/03/22 07:51:01;;;;;;;10.05;4.07;;;12.10;99.90;;;;;;4995949;28;20084;-80
2024/03/22 07:53:27;;;;;;;7.63;4.30;;;12.20;99.90;;;;;;4995945;28;20023;-79
2024/03/22 07:55:52;;;;;;;7.03;4.10;;;12.20;99.90;;;;;;4978410;28;20101;-79
2024/03/22 07:58:19;;;;;;;7.60;4.15;;;12.30;99.90;;;;;;4979039;28;20452;-78
2024/03/22 08:00:45;;;;;;;7.10;4.20;;;12.40;99.90;;;;;;4978601;28;20037;-78
2024/03/22 08:03:16;;;;;;;8.68;4.90;;;12.50;99.90;;;;;;4978455;28;20383;-78
2024/03/22 08:05:42;;;;;;;;;;;12.50;99.90;;;;;;4978956;28;20057;-79
2024/03/22 08:08:08;;;;;;;9.65;3.92;;;12.60;99.90;;;;;;4995388;28;20373;-79
2024/03/22 08:10:33;;;;;;;11.57;4.22;;;12.70;99.90;;;;;;4978508;28;20033;-79
2024/03/22 08:13:00;;;;;;;7.75;4.10;;;12.80;99.90;;;;;;4995238;28;20105;-78
2024/03/22 08:15:26;;;;;;;7.20;4.13;;;13.00;99.90;;;;;;4978306;28;20027;-78
2024/03/22 08:17:52;;;;;;;7.28;4.30;;;13.10;99.90;;;;;;4995302;28;20034;-79
2024/03/22 08:20:17;;;;;;;6.75;4.07;;;13.20;99.90;;;;;;4995675;28;20113;-79
2024/03/22 08:22:43;;;;;;;7.78;4.10;;;13.40;99.90;;;;;;4995554;28;20030;-79
2024/03/22 08:25:08;;;;;;;8.95;4.50;;;13.50;99.90;;;;;;4977995;28;20496;-79
2024/03/22 08:27:34;;;;;;;7.35;4.28;;;13.60;99.90;;;;;;4978287;28;20027;-82
2024/03/22 08:30:00;;;;;;;6.65;4.30;;;13.70;99.90;;;;;;4977467;28;20085;-80
2024/03/22 08:32:26;;;;;;;6.78;3.78;;;13.80;99.90;;;;;;4995237;28;20027;-80
2024/03/22 08:34:51;;;;;;;8.75;4.43;;;13.90;99.90;;;;;;4977389;28;20061;-81
2024/03/22 08:37:17;;;;;;;8.05;4.18;;;14.00;99.90;;;;;;4978165;28;20030;-80
2024/03/22 08:39:43;;;;;;;7.53;3.78;;;14.10;99.90;;;;;;4977913;28;20072;-79
2024/03/22 08:42:09;;;;;;;9.95;4.80;;;14.20;99.90;;;;;;4977563;28;20022;-79
2024/03/22 08:44:35;;;;;;;8.70;4.43;;;14.20;99.90;;;;;;4994865;28;20042;-80
2024/03/22 08:47:01;;;;;;;10.23;5.13;;;14.20;99.90;;;;;;4977593;28;20376;-80
2024/03/22 08:49:26;;;;;;;10.52;4.90;;;14.30;99.90;;;;;;4977951;28;20029;-80
2024/03/22 08:51:52;;;;;;;12.32;5.40;;;14.40;99.90;;;;;;4977392;28;20034;-89
2024/03/22 08:54:18;;;;;;;7.47;4.57;;;14.50;99.90;;;;;;4994828;28;20030;-79
2024/03/22 08:56:43;;;;;;;9.43;4.38;;;14.60;99.90;;;;;;4977681;28;20468;-79
2024/03/22 08:59:10;;;;;;;7.38;4.60;;;14.70;99.90;;;;;;4994512;28;20459;-79
2024/03/22 09:01:35;;;;;;;9.10;4.60;;;14.80;99.90;;;;;;4977686;28;20125;-80
2024/03/22 09:04:01;;;;;;;6.55;4.30;;;14.90;99.90;;;;;;4993909;28;20498;-80
2024/03/22 09:06:27;;;;;;;8.98;4.57;;;15.00;99.90;;;;;;4994527;28;20042;-79
2024/03/22 09:08:55;;;;;;;9.32;4.53;;;15.10;99.90;;;;;;4994828;28;20041;-79
2024/03/22 09:11:20;;;;;;;8.02;4.30;;;15.10;99.90;;;;;;4994779;28;20026;-79
2024/03/22 09:13:49;;;;;;;7.50;4.40;;;15.10;99.90;;;;;;4994602;28;20041;-80
2024/03/22 09:16:15;;;;;;;9.27;5.15;;;15.20;99.90;;;;;;4994420;28;20054;-80
2024/03/22 09:18:41;;;;;;;7.90;4.50;;;15.20;99.90;;;;;;4994663;28;20030;-79
2024/03/22 09:21:08;;;;;;;7.97;4.70;;;15.20;99.90;;;;;;4976517;28;20557;-80
2024/03/22 09:23:34;;;;;;;9.60;4.32;;;15.20;99.90;;;;;;4977307;28;20084;-80
2024/03/22 09:26:00;;;;;;;10.18;4.90;;;15.30;99.90;;;;;;4976990;28;20113;-83
2024/03/22 09:28:26;;;;;;;9.48;4.60;;;15.30;99.90;;;;;;4977027;28;20500;-80
2024/03/22 09:30:51;;;;;;;5.78;3.83;;;15.30;99.90;;;;;;4977086;28;20121;-80
2024/03/22 09:33:17;;;;;;;9.95;4.10;;;15.40;99.90;;;;;;4993586;28;20476;-80
2024/03/22 09:35:43;;;;;;;6.63;3.92;;;15.50;99.90;;;;;;4994360;28;20054;-80
2024/03/22 09:38:09;;;;;;;8.68;4.18;;;15.50;99.90;;;;;;4976784;28;20108;-80
2024/03/22 09:40:39;;;;;;;8.20;4.03;;;15.50;99.90;;;;;;4994498;28;20386;-79
2024/03/22 09:43:07;;;;;;;15.85;5.05;;;15.60;99.90;;;;;;4976712;28;20030;-80
2024/03/22 09:45:45;;;;;;;6.05;3.42;;;15.60;99.90;;;;;;5064754;27;1318112;-80
2024/03/22 09:48:11;;;;;;;7.72;4.00;;;15.60;99.90;;;;;;5089841;28;20423;-81
2024/03/22 09:50:37;;;;;;;9.27;3.60;;;15.60;99.90;;;;;;5090191;28;20453;-80
2024/03/22 09:53:03;;;;;;;7.47;3.53;;;15.60;99.90;;;;;;5089782;28;20020;-80
2024/03/22 09:55:30;;;;;;;7.47;3.75;;;15.70;99.90;;;;;;5090010;28;20024;-80
2024/03/22 09:57:57;;;;;;;6.45;3.63;;;15.90;99.90;;;;;;5089827;28;20020;-90
2024/03/22 10:00:25;;;;;;;7.43;3.67;;;15.90;99.90;;;;;;5091291;28;20060;-80
2024/03/22 10:02:51;;;;;;;6.72;3.63;;;16.00;99.90;;;;;;5090358;28;20437;-77
2024/03/22 10:05:17;;;;;;;6.20;3.17;;;16.00;99.90;;;;;;5089390;28;20078;-79
2024/03/22 10:07:47;;;;;;;6.90;3.47;;;16.10;99.90;;;;;;5090013;28;20369;-78
2024/03/22 10:10:14;;;;;;;7.07;3.95;;;16.20;99.90;;;;;;5089467;28;20020;-79
2024/03/22 10:12:39;;;;;;;7.28;3.72;;;16.20;99.90;;;;;;5090021;28;20024;-79
2024/03/22 10:15:08;;;;;;;6.93;4.32;;;16.30;99.90;;;;;;5089513;28;20071;-79
2024/03/22 10:17:34;;;;;;;6.13;3.75;;;16.30;99.90;;;;;;5089841;28;20025;-78
2024/03/22 10:20:00;;;;;;;7.35;4.05;;;16.30;99.90;;;;;;5090239;28;20020;-80
2024/03/22 10:22:25;;;;;;;8.10;3.95;;;16.30;99.90;;;;;;5089838;28;20078;-79
2024/03/22 10:24:52;;;;;;;7.22;3.65;;;16.40;99.90;;;;;;5089534;28;20095;-79
2024/03/22 10:27:18;;;;;;;8.15;3.95;;;16.40;99.90;;;;;;5089125;28;20277;-80
2024/03/22 10:29:44;;;;;;;11.30;4.10;;;16.40;99.90;;;;;;5089413;28;20445;-80
2024/03/22 10:32:10;;;;;;;6.20;3.95;;;16.40;99.90;;;;;;5088849;28;20081;-80
2024/03/22 10:34:36;;;;;;;8.70;4.15;;;16.50;99.90;;;;;;5089328;28;20031;-80
2024/03/22 10:37:02;;;;;;;6.90;4.10;;;16.50;99.90;;;;;;5088818;28;20453;-80
2024/03/22 10:39:28;;;;;;;9.18;4.13;;;16.50;99.90;;;;;;5090153;28;20016;-79
2024/03/22 10:41:54;;;;;;;6.80;4.22;;;16.60;99.90;;;;;;5089105;28;20029;-79
2024/03/22 10:44:20;;;;;;;7.25;3.90;;;16.60;99.90;;;;;;5097459;28;20054;-79
2024/03/22 10:46:48;;;;;;;7.82;4.38;;;16.60;99.90;;;;;;5110326;28;20137;-79
2024/03/22 10:49:17;;;;;;;6.82;4.38;;;16.70;99.90;;;;;;5091614;28;20026;-79
2024/03/22 10:51:46;;;;;;;9.75;4.78;;;16.60;99.90;;;;;;5092487;28;20079;-79
2024/03/22 10:54:18;;;;;;;7.50;4.25;;;16.70;99.90;;;;;;5091869;28;20530;-79
2024/03/22 10:56:46;;;;;;;8.68;4.55;;;16.80;99.90;;;;;;5081165;28;20020;-79
2024/03/22 10:59:22;;;;;;;8.57;3.97;;;16.80;99.90;;;;;;5078061;28;20448;-79
2024/03/22 11:01:49;;;;;;;6.63;4.22;;;16.80;99.90;;;;;;5078877;28;20020;-79
2024/03/22 11:04:22;;;;;;;10.07;4.80;;;16.90;99.90;;;;;;5077676;28;20484;-80
2024/03/22 11:06:49;;;;;;;5.60;3.83;;;16.90;99.90;;;;;;5078636;28;20059;-80
2024/03/22 11:09:22;;;;;;;6.28;3.72;;;16.80;99.90;;;;;;5077867;28;20035;-79
2024/03/22 11:11:48;;;;;;;5.85;3.50;;;16.90;99.90;;;;;;5096333;28;20023;-80
2024/03/22 11:14:14;;;;;;;8.63;3.83;;;16.80;99.90;;;;;;5095630;28;20485;-80
2024/03/22 11:16:45;;;;;;;6.75;4.18;;;16.80;99.90;;;;;;5078593;28;20054;-79
2024/03/22 11:19:12;;;;;;;8.13;4.10;;;16.80;99.90;;;;;;5077896;28;20020;-79
2024/03/22 11:21:38;;;;;;;5.15;3.63;;;16.80;99.90;;;;;;5078264;28;20049;-78
2024/03/22 11:24:04;;;;;;;7.18;3.80;;;16.80;99.90;;;;;;5077556;28;20115;-78
2024/03/22 11:26:30;;;;;;;6.05;3.60;;;16.90;99.90;;;;;;5096203;28;20032;-78
2024/03/22 11:28:55;;;;;;;6.38;3.05;;;17.00;99.90;;;;;;5096001;28;20069;-80
2024/03/22 11:31:27;;;;;;;7.50;3.72;;;17.00;99.90;;;;;;5077744;28;20076;-78
2024/03/22 11:33:53;;;;;;;4.40;3.00;;;17.00;99.90;;;;;;5078344;28;20028;-78
2024/03/22 11:36:19;;;;;;;7.50;3.03;;;17.00;99.90;;;;;;5077220;28;20064;-78
2024/03/22 11:38:44;;;;;;;8.70;3.42;;;17.10;99.90;;;;;;5077617;28;20110;-78
2024/03/22 11:41:12;;;;;;;9.15;3.53;;;17.10;99.90;;;;;;5077139;28;20073;-78
2024/03/22 11:43:38;;;;;;;5.47;3.13;;;17.30;99.90;;;;;;5095305;28;20028;-78
2024/03/22 11:46:04;;;;;;;5.13;3.15;;;17.40;99.70;;;;;;5077373;28;20159;-79
2024/03/22 11:48:29;;;;;;;5.30;2.97;;;17.50;99.90;;;;;;5077765;28;20024;-78
2024/03/22 11:50:56;;;;;;;6.38;2.70;;;17.60;99.90;;;;;;5078009;28;20452;-78
2024/03/22 11:53:22;;;;;;;4.53;3.08;;;17.60;99.90;;;;;;5077055;28;20063;-78
2024/03/22 11:55:49;;;;;;;6.30;3.20;;;17.70;99.90;;;;;;5077643;28;20472;-79
2024/03/22 11:58:15;;;;;;;5.05;3.10;;;17.70;99.80;;;;;;5077294;28;20016;-78
2024/03/22 12:00:42;;;;;;;6.57;2.85;;;17.70;99.50;;;;;;5095666;28;20360;-78
2024/03/22 12:03:08;;;;;;;6.50;3.20;;;17.70;99.40;;;;;;5077051;28;20027;-78
2024/03/22 12:05:34;;;;;;;6.28;2.92;;;17.70;99.10;;;;;;5095249;28;20027;-78
2024/03/22 12:08:00;;;;;;;7.82;2.40;;;17.90;99.50;;;;;;5076370;28;20395;-78
2024/03/22 12:10:25;;;;;;;4.45;2.83;;;18.00;99.00;;;;;;5094982;28;20020;-79
2024/03/22 12:12:53;;;;;;;6.63;3.10;;;18.00;99.00;;;;;;5077325;28;20037;-78
2024/03/22 12:15:19;;;;;;;6.07;2.97;;;18.10;98.50;;;;;;5094986;28;20042;-78
2024/03/22 12:17:44;;;;;;;6.28;3.25;;;18.20;98.60;;;;;;5077162;28;20372;-78
2024/03/22 12:20:10;;;;;;;5.50;2.97;;;18.10;98.20;;;;;;5076541;28;20012;-78
2024/03/22 12:22:36;;;;;;;6.43;3.33;;;18.20;98.60;;;;;;5094778;28;20081;-78
2024/03/22 12:25:01;;;;;;;5.38;3.22;;;18.20;97.80;;;;;;5094668;28;20035;-78
2024/03/22 12:27:27;;;;;;;7.78;2.95;;;18.40;97.60;;;;;;5076475;28;20123;-78
2024/03/22 12:29:53;;;;;;;4.97;3.22;;;18.70;97.70;;;;;;5076683;28;20060;-78
2024/03/22 12:32:19;;;;;;;6.15;2.95;;;18.90;97.10;;;;;;5076327;28;20457;-78
2024/03/22 12:34:44;;;;;;;9.23;3.10;;;19.10;96.70;;;;;;5094700;28;20020;-78
2024/03/22 12:37:10;;;;;;;6.05;3.13;;;19.10;96.10;;;;;;5076327;28;20020;-78
2024/03/22 12:39:37;;;;;;;5.03;2.70;;;19.00;95.40;;;;;;5076854;28;20047;-78